createdAt,value
2018-08-24T00:03:37.740Z,33.20
2018-08-24T00:08:40.748Z,30.53
2018-08-24T00:13:43.780Z,30.27
2018-08-24T00:18:46.834Z,32.10
2018-08-24T00:23:49.868Z,29.47
2018-08-24T00:28:52.900Z,29.70
2018-08-24T00:33:55.927Z,26.80
2018-08-24T00:38:58.990Z,27.93
2018-08-24T00:44:02.027Z,28.70
2018-08-24T00:49:05.060Z,27.30
2018-08-24T00:54:08.147Z,27.20
2018-08-24T00:59:11.178Z,28.00
2018-08-24T01:04:17.443Z,25.07
2018-08-24T01:09:20.527Z,26.90
2018-08-24T01:14:23.580Z,25.80
2018-08-24T01:19:26.622Z,26.03
2018-08-24T01:24:31.486Z,25.27
2018-08-24T01:29:36.232Z,26.07
2018-08-24T01:34:39.284Z,27.03
2018-08-24T01:39:42.617Z,28.13
2018-08-24T01:44:45.723Z,26.50
2018-08-24T01:49:48.743Z,31.43
2018-08-24T01:54:51.836Z,29.50
2018-08-24T01:59:54.873Z,40.07
2018-08-24T02:04:57.934Z,46.73
2018-08-24T02:10:00.954Z,53.27
2018-08-24T02:15:03.981Z,52.53
2018-08-24T02:20:12.354Z,54.50
2018-08-24T02:25:15.508Z,56.10
2018-08-24T02:30:18.556Z,52.77
2018-08-24T02:35:21.581Z,52.17
2018-08-24T02:40:24.620Z,48.40
2018-08-24T02:45:27.710Z,47.60
2018-08-24T02:50:30.744Z,43.87
2018-08-24T02:55:34.160Z,41.10
2018-08-24T03:00:37.225Z,29.67
2018-08-24T03:05:40.466Z,30.93
2018-08-24T03:10:43.349Z,30.10
2018-08-24T03:15:46.462Z,30.13
2018-08-24T03:20:49.535Z,29.30
2018-08-24T03:25:52.703Z,30.70
2018-08-24T03:30:55.769Z,30.80
2018-08-24T03:36:00.404Z,33.33
2018-08-24T03:41:03.531Z,33.03
2018-08-24T03:46:06.626Z,33.97
2018-08-24T03:51:09.688Z,32.20
2018-08-24T03:56:12.819Z,29.23
2018-08-24T04:01:15.873Z,28.77
2018-08-24T04:06:18.925Z,28.13
2018-08-24T04:11:21.967Z,26.60
2018-08-24T04:16:25.000Z,25.97
2018-08-24T04:21:28.055Z,26.90
2018-08-24T04:26:31.091Z,24.60
2018-08-24T04:31:34.140Z,22.87
2018-08-24T04:36:37.184Z,23.20
2018-08-24T04:41:40.883Z,22.47
2018-08-24T04:46:43.936Z,18.47
2018-08-24T04:51:46.973Z,18.70
2018-08-24T04:56:50.016Z,16.70
2018-08-24T05:01:53.024Z,16.20
2018-08-24T05:06:56.067Z,15.80
2018-08-24T05:11:59.107Z,17.50
2018-08-24T05:17:02.174Z,17.10
2018-08-24T05:22:05.576Z,17.07
2018-08-24T05:27:08.712Z,18.47
2018-08-24T05:32:11.731Z,16.23
2018-08-24T05:37:14.765Z,18.47
2018-08-24T05:42:17.813Z,18.90
2018-08-24T05:47:20.840Z,17.50
2018-08-24T05:52:23.865Z,17.90
2018-08-24T05:57:26.887Z,17.70
2018-08-24T06:02:29.963Z,18.67
2018-08-24T06:07:32.993Z,18.03
2018-08-24T06:12:36.032Z,18.13
2018-08-24T06:17:44.667Z,17.00
2018-08-24T06:22:47.752Z,17.73
2018-08-24T06:27:50.781Z,18.13
2018-08-24T06:32:53.861Z,18.57
2018-08-24T06:37:56.876Z,15.10
2018-08-24T06:42:59.925Z,15.10
2018-08-24T06:48:03.048Z,15.30
2018-08-24T06:53:06.187Z,15.27
2018-08-24T06:58:09.156Z,13.43
2018-08-24T07:03:12.307Z,14.47
2018-08-24T07:08:15.360Z,13.87
2018-08-24T07:13:18.430Z,12.93
2018-08-24T07:18:21.463Z,15.90
2018-08-24T07:23:24.499Z,14.23
2018-08-24T07:28:27.532Z,11.93
2018-08-24T07:33:30.609Z,11.33
2018-08-24T07:38:33.798Z,11.03
2018-08-24T07:43:36.829Z,10.50
2018-08-24T07:48:39.832Z,8.80
2018-08-24T07:53:42.880Z,9.73
2018-08-24T07:58:45.903Z,8.20
2018-08-24T08:03:48.961Z,8.73
2018-08-24T08:08:51.980Z,9.13
2018-08-24T08:13:55.028Z,10.27
2018-08-24T08:18:58.084Z,12.63
2018-08-24T08:24:01.175Z,13.00
2018-08-24T08:29:04.208Z,12.37
2018-08-24T08:34:07.407Z,12.27
2018-08-24T08:39:12.023Z,14.40
2018-08-24T08:44:15.479Z,14.00
2018-08-24T08:49:18.528Z,12.90
2018-08-24T08:54:21.791Z,12.53
2018-08-24T08:59:25.015Z,9.87
2018-08-24T09:04:28.071Z,9.13
2018-08-24T09:09:31.135Z,9.13
2018-08-24T09:14:34.624Z,7.10
2018-08-24T09:19:44.477Z,7.50
2018-08-24T09:24:52.964Z,7.97
2018-08-24T09:29:57.702Z,6.90
2018-08-24T09:35:00.744Z,4.43
2018-08-24T09:40:04.049Z,5.40
2018-08-24T09:45:07.169Z,6.43
2018-08-24T09:50:15.548Z,6.00
2018-08-24T09:55:18.809Z,5.90
2018-08-24T10:00:24.766Z,6.70
2018-08-24T10:05:33.351Z,6.53
2018-08-24T10:10:36.387Z,7.50
2018-08-24T10:15:39.473Z,7.80
2018-08-24T10:20:42.516Z,9.33
2018-08-24T10:25:45.584Z,7.40
2018-08-24T10:30:48.938Z,7.40
2018-08-24T10:35:51.991Z,6.60
2018-08-24T10:40:55.093Z,6.83
2018-08-24T10:45:59.359Z,5.60
2018-08-24T10:51:02.374Z,3.60
2018-08-24T10:56:05.637Z,4.30
2018-08-24T11:01:08.584Z,4.23
2018-08-24T11:06:11.634Z,3.90
2018-08-24T11:11:14.646Z,3.70
2018-08-24T11:16:17.745Z,3.70
2018-08-24T11:21:20.980Z,2.00
2018-08-24T11:26:24.973Z,2.60
2018-08-24T11:31:28.012Z,2.93
2018-08-24T11:36:31.037Z,3.20
2018-08-24T11:41:35.294Z,3.87
2018-08-24T11:46:38.312Z,3.67
2018-08-24T11:51:41.491Z,4.10
2018-08-24T11:56:44.525Z,3.97
2018-08-24T12:01:47.576Z,3.33
2018-08-24T12:06:50.596Z,3.97
2018-08-24T12:11:53.653Z,3.77
2018-08-24T12:16:56.725Z,4.63
2018-08-24T12:21:59.771Z,4.33
2018-08-24T12:27:02.839Z,4.70
2018-08-24T12:32:06.312Z,5.10
2018-08-24T12:37:11.592Z,4.80
2018-08-24T12:42:14.669Z,5.83
2018-08-24T12:47:17.679Z,5.80
2018-08-24T12:52:20.696Z,6.43
2018-08-24T12:57:27.429Z,5.57
2018-08-24T13:02:30.459Z,5.60
2018-08-24T13:07:33.531Z,4.60
2018-08-24T13:12:36.593Z,5.00
2018-08-24T13:17:39.624Z,5.53
2018-08-24T13:22:42.713Z,5.10
2018-08-24T13:27:51.161Z,5.80
2018-08-24T13:32:54.290Z,5.37
2018-08-24T13:37:57.336Z,5.77
2018-08-24T13:43:00.604Z,5.80
2018-08-24T13:48:03.964Z,5.40
2018-08-24T13:53:07.004Z,5.00
2018-08-24T13:58:10.041Z,5.60
2018-08-24T14:03:13.066Z,5.23
2018-08-24T14:08:16.086Z,5.40
2018-08-24T14:13:19.352Z,5.30
2018-08-24T14:18:22.376Z,6.10
2018-08-24T14:23:25.486Z,5.87
2018-08-24T14:28:28.504Z,6.07
2018-08-24T14:33:31.546Z,5.80
2018-08-24T14:38:34.601Z,6.77
2018-08-24T14:43:37.772Z,6.33
2018-08-24T14:48:41.009Z,6.23
2018-08-24T14:53:44.093Z,5.70
2018-08-24T14:58:47.138Z,5.50
2018-08-24T15:03:50.183Z,6.37
2018-08-24T15:08:53.239Z,5.30
2018-08-24T15:13:56.317Z,6.07
2018-08-24T15:18:59.275Z,5.23
2018-08-24T15:24:02.291Z,5.77
2018-08-24T15:29:05.342Z,5.67
2018-08-24T15:34:08.478Z,5.60
2018-08-24T15:39:12.725Z,5.20
2018-08-24T15:44:15.764Z,5.73
2018-08-24T15:49:18.778Z,6.03
2018-08-24T15:54:21.945Z,6.00
2018-08-24T15:59:25.288Z,6.20
2018-08-24T16:04:28.311Z,6.50
2018-08-24T16:09:31.337Z,6.53
2018-08-24T16:14:34.387Z,6.30
2018-08-24T16:19:37.437Z,5.83
2018-08-24T16:24:40.494Z,5.87
2018-08-24T16:29:43.541Z,5.50
2018-08-24T16:34:46.629Z,5.77
2018-08-24T16:39:49.688Z,6.00
2018-08-24T16:44:52.759Z,4.83
2018-08-24T16:49:55.820Z,5.30
2018-08-24T16:54:58.881Z,4.70
2018-08-24T17:00:01.985Z,4.40
2018-08-24T17:05:05.420Z,4.40
2018-08-24T17:10:09.016Z,3.63
2018-08-24T17:15:12.127Z,4.37
2018-08-24T17:20:15.174Z,4.13
2018-08-24T17:25:18.214Z,3.90
2018-08-24T17:30:21.241Z,3.43
2018-08-24T17:35:24.267Z,3.47
2018-08-24T17:40:27.363Z,3.93
2018-08-24T17:45:30.402Z,3.43
2018-08-24T17:50:33.433Z,3.57
2018-08-24T17:55:36.576Z,2.77
2018-08-24T18:00:39.758Z,3.90
2018-08-24T18:05:42.818Z,3.40
2018-08-24T18:10:45.876Z,2.73
2018-08-24T18:15:49.000Z,3.20
2018-08-24T18:20:52.031Z,3.13
2018-08-24T18:25:55.224Z,3.20
2018-08-24T18:30:58.250Z,3.00
2018-08-24T18:36:01.603Z,3.40
2018-08-24T18:41:04.629Z,3.67
2018-08-24T18:46:07.657Z,2.80
2018-08-24T18:51:10.681Z,3.57
2018-08-24T18:56:13.818Z,3.00
2018-08-24T19:01:16.972Z,2.90
2018-08-24T19:06:20.329Z,3.23
2018-08-24T19:11:29.015Z,2.87
2018-08-24T19:16:32.035Z,3.40
2018-08-24T19:21:41.240Z,3.67
2018-08-24T19:26:44.782Z,3.37
2018-08-24T19:31:47.915Z,3.00
2018-08-24T19:36:51.083Z,2.70
2018-08-24T19:41:59.620Z,3.07
2018-08-24T19:47:02.743Z,3.13
2018-08-24T19:52:06.219Z,4.30
2018-08-24T19:57:14.668Z,3.33
2018-08-24T20:02:17.851Z,3.57
2018-08-24T20:07:26.398Z,3.13
2018-08-24T20:12:29.403Z,3.00
2018-08-24T20:17:32.528Z,2.90
2018-08-24T20:22:35.551Z,3.20
2018-08-24T20:27:38.571Z,3.37
2018-08-24T20:32:41.888Z,2.90
2018-08-24T20:37:44.896Z,3.33
2018-08-24T20:42:47.901Z,2.67
2018-08-24T20:47:50.995Z,3.07
2018-08-24T20:52:54.029Z,3.30
2018-08-24T20:57:57.069Z,3.27
2018-08-24T21:03:00.223Z,2.93
2018-08-24T21:08:03.488Z,3.53
2018-08-24T21:13:06.505Z,3.00
2018-08-24T21:18:09.540Z,3.17
2018-08-24T21:23:12.583Z,3.10
2018-08-24T21:28:15.648Z,2.77
2018-08-24T21:33:18.688Z,3.07
2018-08-24T21:38:21.708Z,2.43
2018-08-24T21:43:24.754Z,2.50
2018-08-24T21:48:27.756Z,2.10
2018-08-24T21:53:30.811Z,2.00
2018-08-24T21:58:33.852Z,2.20
2018-08-24T22:03:36.860Z,2.40
2018-08-24T22:08:39.888Z,2.30
2018-08-24T22:13:42.903Z,2.60
2018-08-24T22:18:45.940Z,2.20
2018-08-24T22:23:48.958Z,1.80
2018-08-24T22:28:51.988Z,1.50
2018-08-24T22:33:55.027Z,1.80
2018-08-24T22:38:58.043Z,2.00
2018-08-24T22:44:01.096Z,1.50
2018-08-24T22:49:04.121Z,1.70
2018-08-24T22:54:07.172Z,2.50
2018-08-24T22:59:10.212Z,2.40
2018-08-24T23:04:13.291Z,2.50
2018-08-24T23:09:16.332Z,2.00
2018-08-24T23:14:19.359Z,2.23
2018-08-24T23:19:22.424Z,2.30
2018-08-24T23:24:25.448Z,1.53
2018-08-24T23:29:28.489Z,1.87
2018-08-24T23:34:31.523Z,2.40
2018-08-24T23:39:34.548Z,2.10
2018-08-24T23:44:37.580Z,2.23
2018-08-24T23:49:40.612Z,1.83
2018-08-24T23:54:43.737Z,1.20
2018-08-24T23:59:46.767Z,2.17
